createdAt,value
2024-05-09T00:02:12.903Z,99463.81
2024-05-09T00:07:20.413Z,99464.69
2024-05-09T00:12:25.814Z,99456.44
2024-05-09T00:17:30.803Z,99457.47
2024-05-09T00:22:38.280Z,99462.22
2024-05-09T00:27:43.000Z,99462.16
2024-05-09T00:32:47.871Z,99464.25
2024-05-09T00:37:55.469Z,99459.31
2024-05-09T00:43:00.598Z,99461.41
2024-05-09T00:48:08.183Z,99460.53
2024-05-09T00:53:19.842Z,99448.78
2024-05-09T00:58:28.682Z,99458.09
2024-05-09T01:03:34.135Z,99454.41
2024-05-09T01:08:41.781Z,99450.50
2024-05-09T01:13:46.686Z,99455.91
2024-05-09T01:18:51.899Z,99444.13
2024-05-09T01:23:59.261Z,99446.41
2024-05-09T01:29:05.262Z,99444.03
2024-05-09T01:34:10.121Z,99448.56
2024-05-09T01:39:17.524Z,99447.69
2024-05-09T01:44:22.413Z,99450.34
2024-05-09T01:49:27.934Z,99443.06
2024-05-09T01:54:35.469Z,99441.03
2024-05-09T01:59:40.208Z,99445.59
2024-05-09T02:04:50.368Z,99447.75
2024-05-09T02:09:58.051Z,99441.09
2024-05-09T02:15:03.052Z,99443.19
2024-05-09T02:20:13.210Z,99448.47
2024-05-09T02:25:23.748Z,99440.88
2024-05-09T02:30:38.048Z,99443.63
2024-05-09T02:35:45.856Z,99442.28
2024-05-09T02:40:53.523Z,99438.28
2024-05-09T02:45:58.826Z,99428.00
2024-05-09T02:51:04.661Z,99429.13
2024-05-09T02:56:12.598Z,99436.69
2024-05-09T03:01:19.873Z,99444.91
2024-05-09T03:06:24.501Z,99439.75
2024-05-09T03:11:34.075Z,99443.72
2024-05-09T03:16:40.745Z,99436.19
2024-05-09T03:21:45.429Z,99438.34
2024-05-09T03:26:52.715Z,99447.69
2024-05-09T03:31:58.518Z,99449.63
2024-05-09T03:37:03.308Z,99445.56
2024-05-09T03:42:10.737Z,99446.31
2024-05-09T03:47:16.068Z,99444.78
2024-05-09T03:52:21.142Z,99431.00
2024-05-09T03:57:28.515Z,99441.19
2024-05-09T04:02:33.846Z,99437.59
2024-05-09T04:07:40.487Z,99445.78
2024-05-09T04:12:48.980Z,99447.06
2024-05-09T04:17:53.765Z,99453.50
2024-05-09T04:22:58.609Z,99453.72
2024-05-09T04:28:06.912Z,99447.03
2024-05-09T04:33:14.387Z,99452.50
2024-05-09T04:38:19.921Z,99454.31
2024-05-09T04:43:28.049Z,99460.06
2024-05-09T04:48:32.783Z,99459.06
2024-05-09T04:53:38.758Z,99468.94
2024-05-09T04:58:46.526Z,99460.38
2024-05-09T05:03:53.367Z,99461.72
2024-05-09T05:08:58.712Z,99471.47
2024-05-09T05:14:07.217Z,99481.84
2024-05-09T05:19:15.125Z,99487.34
2024-05-09T05:24:22.688Z,99478.41
2024-05-09T05:29:30.948Z,99480.88
2024-05-09T05:34:36.864Z,99475.63
2024-05-09T05:39:42.391Z,99483.63
2024-05-09T05:44:50.029Z,99484.22
2024-05-09T05:49:54.643Z,99484.34
2024-05-09T05:55:00.296Z,99483.25
2024-05-09T06:00:15.113Z,99484.09
2024-05-09T06:05:26.001Z,99486.28
2024-05-09T06:10:38.301Z,99495.81
2024-05-09T06:15:47.879Z,99492.13
2024-05-09T06:20:52.739Z,99488.50
2024-05-09T06:25:57.569Z,99489.34
2024-05-09T06:31:07.026Z,99494.00
2024-05-09T06:36:11.957Z,99500.72
2024-05-09T06:41:17.617Z,99500.94
2024-05-09T06:46:26.054Z,99499.06
2024-05-09T06:51:31.094Z,99499.63
2024-05-09T06:56:36.035Z,99502.31
2024-05-09T07:01:44.856Z,99494.78
2024-05-09T07:06:49.626Z,99499.03
2024-05-09T07:11:55.236Z,99504.16
2024-05-09T07:17:02.658Z,99497.13
2024-05-09T07:22:07.635Z,99489.13
2024-05-09T07:27:12.238Z,99494.81
2024-05-09T07:32:21.789Z,99495.50
2024-05-09T07:37:28.390Z,99493.31
2024-05-09T07:42:33.006Z,99482.28
2024-05-09T07:49:12.457Z,99486.22
2024-05-09T07:53:36.744Z,99480.44
2024-05-09T07:58:33.834Z,99490.09
2024-05-09T08:03:41.378Z,99486.81
2024-05-09T08:08:46.980Z,99478.50
2024-05-09T08:13:51.836Z,99475.44
2024-05-09T08:19:00.166Z,99472.78
2024-05-09T08:24:05.082Z,99478.88
2024-05-09T08:29:10.161Z,99475.56
2024-05-09T08:34:17.960Z,99478.44
2024-05-09T08:39:23.037Z,99470.78
2024-05-09T08:44:28.620Z,99467.31
2024-05-09T08:49:37.759Z,99465.38
2024-05-09T08:54:45.180Z,99462.59
2024-05-09T08:59:52.340Z,99463.56
2024-05-09T09:05:08.048Z,99461.94
2024-05-09T09:10:17.871Z,99455.47
2024-05-09T09:15:29.931Z,99455.81
2024-05-09T09:20:37.660Z,99451.72
2024-05-09T09:25:43.543Z,99459.16
2024-05-09T09:30:48.513Z,99448.28
2024-05-09T09:35:59.340Z,99450.63
2024-05-09T09:41:07.192Z,99439.56
2024-05-09T09:46:14.975Z,99434.81
2024-05-09T09:51:24.245Z,99430.88
2024-05-09T09:56:30.424Z,99431.38
2024-05-09T10:01:36.451Z,99435.97
2024-05-09T10:06:48.131Z,99434.16
2024-05-09T10:11:59.948Z,99423.38
2024-05-09T10:17:08.867Z,99423.59
2024-05-09T10:22:16.706Z,99417.84
2024-05-09T10:27:28.875Z,99408.88
2024-05-09T10:32:40.708Z,99402.44
2024-05-09T10:37:48.496Z,99405.63
2024-05-09T10:42:53.354Z,99398.97
2024-05-09T10:47:59.185Z,99397.22
2024-05-09T10:53:07.837Z,99387.38
2024-05-09T10:58:19.923Z,99396.38
2024-05-09T11:03:26.344Z,99377.34
2024-05-09T11:08:34.405Z,99380.19
2024-05-09T11:13:40.395Z,99372.38
2024-05-09T11:18:45.331Z,99363.25
2024-05-09T11:23:54.335Z,99361.16
2024-05-09T11:28:59.013Z,99361.09
2024-05-09T11:34:05.999Z,99352.53
2024-05-09T11:39:15.057Z,99350.53
2024-05-09T11:44:20.099Z,99352.63
2024-05-09T11:49:26.842Z,99346.72
2024-05-09T11:54:34.422Z,99337.38
2024-05-09T11:59:40.552Z,99330.56
2024-05-09T12:04:46.918Z,99319.28
2024-05-09T12:09:55.793Z,99319.53
2024-05-09T12:15:00.493Z,99313.06
2024-05-09T12:20:11.316Z,99312.50
2024-05-09T12:25:24.548Z,99309.50
2024-05-09T12:30:36.683Z,99306.06
2024-05-09T12:35:46.747Z,99302.47
2024-05-09T12:40:56.125Z,99299.00
2024-05-09T12:46:03.918Z,99298.22
2024-05-09T12:51:08.994Z,99287.53
2024-05-09T12:56:16.766Z,99291.13
2024-05-09T13:01:21.813Z,99272.56
2024-05-09T13:06:28.020Z,99276.50
2024-05-09T13:11:36.668Z,99270.63
2024-05-09T13:16:42.550Z,99260.03
2024-05-09T13:21:47.410Z,99262.19
2024-05-09T13:26:54.574Z,99252.66
2024-05-09T13:31:59.695Z,99255.63
2024-05-09T13:37:04.419Z,99248.50
2024-05-09T13:42:12.456Z,99237.19
2024-05-09T13:47:17.657Z,99231.88
2024-05-09T13:52:22.467Z,99225.28
2024-05-09T13:57:30.235Z,99235.53
2024-05-09T14:02:35.143Z,99223.81
2024-05-09T14:07:40.561Z,99214.69
2024-05-09T14:12:48.506Z,99208.69
2024-05-09T14:17:54.073Z,99204.88
2024-05-09T14:22:59.506Z,99201.38
2024-05-09T14:28:09.699Z,99195.94
2024-05-09T14:33:16.998Z,99189.13
2024-05-09T14:38:22.558Z,99180.81
2024-05-09T14:43:30.113Z,99186.97
2024-05-09T14:48:34.928Z,99182.31
2024-05-09T14:53:39.808Z,99182.19
2024-05-09T14:58:48.530Z,99174.66
2024-05-09T15:03:53.781Z,99173.06
2024-05-09T15:09:02.112Z,99164.13
2024-05-09T15:14:09.670Z,99168.06
2024-05-09T15:19:14.526Z,99154.03
2024-05-09T15:24:20.527Z,99149.66
2024-05-09T15:29:30.054Z,99138.63
2024-05-09T15:34:35.305Z,99136.25
2024-05-09T15:39:40.007Z,99137.09
2024-05-09T15:44:52.779Z,99138.09
2024-05-09T15:49:57.784Z,99134.94
2024-05-09T15:55:02.622Z,99131.97
2024-05-09T16:00:21.436Z,99133.44
2024-05-09T16:05:30.411Z,99128.09
2024-05-09T16:10:35.790Z,99120.34
2024-05-09T16:15:44.379Z,99118.50
2024-05-09T16:20:50.278Z,99115.31
2024-05-09T16:25:56.208Z,99123.44
2024-05-09T16:31:03.470Z,99122.09
2024-05-09T16:36:09.999Z,99119.25
2024-05-09T16:41:15.738Z,99110.22
2024-05-09T16:46:23.430Z,99101.47
2024-05-09T16:51:28.199Z,99104.25
2024-05-09T16:56:34.435Z,99103.09
2024-05-09T17:01:42.489Z,99097.88
2024-05-09T17:06:47.756Z,99097.66
2024-05-09T17:11:52.547Z,99100.81
2024-05-09T17:17:00.729Z,99101.28
2024-05-09T17:22:05.496Z,99085.88
2024-05-09T17:27:11.089Z,99079.88
2024-05-09T17:32:18.586Z,99075.28
2024-05-09T17:37:23.675Z,99076.16
2024-05-09T17:42:28.409Z,99074.00
2024-05-09T17:47:38.407Z,99074.66
2024-05-09T17:52:43.690Z,99079.19
2024-05-09T17:57:49.251Z,99082.09
2024-05-09T18:02:56.726Z,99082.94
2024-05-09T18:08:01.417Z,99083.06
2024-05-09T18:13:07.122Z,99079.31
2024-05-09T18:18:16.913Z,99091.16
2024-05-09T18:23:22.217Z,99084.56
2024-05-09T18:28:28.235Z,99085.25
2024-05-09T18:33:59.781Z,99079.94
2024-05-09T18:39:04.842Z,99090.69
2024-05-09T18:44:10.554Z,99096.19
2024-05-09T18:49:18.332Z,99101.16
2024-05-09T18:54:23.364Z,99099.81
2024-05-09T18:59:28.064Z,99106.59
2024-05-09T19:04:35.747Z,99101.75
2024-05-09T19:09:40.873Z,99100.88
2024-05-09T19:14:46.094Z,99106.88
2024-05-09T19:19:54.354Z,99107.91
2024-05-09T19:24:59.125Z,99114.81
2024-05-09T19:30:09.415Z,99110.56
2024-05-09T19:35:21.352Z,99123.19
2024-05-09T19:40:31.274Z,99122.91
2024-05-09T19:45:38.903Z,99125.50
2024-05-09T19:50:51.568Z,99129.81
2024-05-09T19:55:59.185Z,99125.84
2024-05-09T20:01:04.248Z,99131.25
2024-05-09T20:06:11.982Z,99130.69
2024-05-09T20:11:19.113Z,99122.63
2024-05-09T20:16:24.363Z,99132.81
2024-05-09T20:21:32.785Z,99132.13
2024-05-09T20:26:37.566Z,99140.16
2024-05-09T20:31:43.898Z,99138.06
2024-05-09T20:36:51.230Z,99142.69
2024-05-09T20:41:57.881Z,99148.22
2024-05-09T20:47:02.599Z,99144.41
2024-05-09T20:52:11.148Z,99142.84
2024-05-09T20:57:15.883Z,99142.97
2024-05-09T21:02:21.687Z,99141.22
2024-05-09T21:07:29.156Z,99141.44
2024-05-09T21:12:33.722Z,99143.97
2024-05-09T21:17:39.247Z,99150.53
2024-05-09T21:22:46.972Z,99142.25
2024-05-09T21:27:51.984Z,99147.78
2024-05-09T21:32:57.144Z,99143.41
2024-05-09T21:38:05.807Z,99153.09
2024-05-09T21:43:11.875Z,99158.97
2024-05-09T21:48:17.300Z,99144.09
2024-05-09T21:53:24.727Z,99150.63
2024-05-09T21:58:30.314Z,99149.47
2024-05-09T22:03:35.230Z,99157.75
2024-05-09T22:08:42.688Z,99154.03
2024-05-09T22:13:48.028Z,99152.34
2024-05-09T22:18:53.230Z,99148.75
2024-05-09T22:24:00.646Z,99151.97
2024-05-09T22:29:05.098Z,99144.34
2024-05-09T22:34:09.952Z,99145.13
2024-05-09T22:39:17.869Z,99142.03
2024-05-09T22:44:23.190Z,99148.53
2024-05-09T22:49:27.874Z,99149.91
2024-05-09T22:54:35.744Z,99147.53
2024-05-09T22:59:41.019Z,99138.44
2024-05-09T23:04:46.398Z,99141.25
2024-05-09T23:09:54.043Z,99142.09
2024-05-09T23:14:59.401Z,99142.75
2024-05-09T23:20:06.855Z,99135.94
2024-05-09T23:25:15.479Z,99137.16
2024-05-09T23:30:29.249Z,99136.53
2024-05-09T23:35:41.602Z,99133.47
2024-05-09T23:40:50.159Z,99119.53
2024-05-09T23:45:55.687Z,99125.56
2024-05-09T23:51:00.443Z,99127.75
2024-05-09T23:56:08.531Z,99122.03
